This demonstration page uses our WeatherBlox Daily Observations layout. Learn more.

39.29038, -76.61219

Hourly Observations for July 2, 2017

Temp ( °F °C ) Dew Point ( °F °C ) Humidity (%) Winds ( mph kmh ) Pressure ( in mb ) Visibility ( mi km ) Precip ( " mm )
12:54 am 00:54 undefined 78 25.6 72 22.2 82 82 undefined N/A 29.94 1014 N/A 0 0
1:54 am 01:54 undefined 77 25 73 22.8 88 88 undefined N/A 29.94 1014 N/A 0 0
2:54 am 02:54 undefined 77 25 73 22.8 88 88 undefined N/A 29.94 1014 N/A 0 0
3:54 am 03:54 undefined 77 25 73 22.8 88 88 undefined N/A 29.94 1014 N/A 0 0
4:54 am 04:54 undefined 77 25 72 22.2 85 85 undefined N/A 29.94 1014 N/A 0 0
5:54 am 05:54 undefined 76 24.4 70 21.1 82 82 undefined N/A 29.97 1015 N/A 0 0
6:54 am 06:54 undefined 78 25.6 68 20 71 71 undefined N/A 30 1016 N/A 0 0
7:54 am 07:54 undefined 80 26.7 69 20.6 69 69 undefined N/A 30.03 1017 N/A 0 0
8:54 am 08:54 undefined 83 28.3 67 19.4 59 59 undefined N/A 30.03 1017 N/A 0 0
9:54 am 09:54 undefined 86 30 68 20 55 55 undefined N/A 30.03 1017 N/A 0 0
10:54 am 10:54 undefined 87 30.6 68 20 53 53 undefined N/A 30.03 1017 N/A 0.01 0.254
11:54 am 11:54 undefined 89 31.7 65 18.3 45 45 undefined N/A 30 1016 N/A 0 0
12:54 pm 12:54 undefined 89 31.7 62 16.7 41 41 undefined N/A 30 1016 N/A 0 0
1:54 pm 13:54 undefined 90 32.2 64 17.8 42 42 undefined N/A 30 1016 N/A 0 0
2:54 pm 14:54 undefined 92 33.3 64 17.8 40 40 undefined N/A 30 1016 N/A 0 0
3:54 pm 15:54 undefined 92 33.3 63 17.2 38 38 undefined N/A 29.97 1015 N/A 0 0
4:54 pm 16:54 undefined 93 33.9 63 17.2 37 37 undefined N/A 29.94 1014 N/A 0 0
5:54 pm 17:54 undefined 92 33.3 63 17.2 38 38 undefined N/A 29.91 1013 N/A 0 0
6:54 pm 18:54 undefined 91 32.8 63 17.2 39 39 undefined N/A 29.94 1014 N/A 0 0
7:54 pm 19:54 undefined 87 30.6 66 18.9 50 50 undefined N/A 29.94 1014 N/A 0 0
8:54 pm 20:54 undefined 86 30 67 19.4 53 53 undefined N/A 29.97 1015 N/A 0 0
9:54 pm 21:54 undefined 85 29.4 67 19.4 55 55 undefined N/A 29.97 1015 N/A 0 0
10:54 pm 22:54 undefined 83 28.3 68 20 61 61 undefined N/A 29.97 1015 N/A 0 0
11:54 pm 23:54 undefined 83 28.3 69 20.6 63 63 undefined N/A 29.97 1015 N/A 0 0

Powered by AerisWeather